createdAt,value
2024-01-19T00:00:19.474Z,10.60
2024-01-19T00:01:51.739Z,11.00
2024-01-19T00:03:23.901Z,12.00
2024-01-19T00:04:56.452Z,12.40
2024-01-19T00:06:28.440Z,12.90
2024-01-19T00:08:00.588Z,11.90
2024-01-19T00:09:33.250Z,13.30
2024-01-19T00:11:06.678Z,13.80
2024-01-19T00:12:38.908Z,11.00
2024-01-19T00:14:10.857Z,12.20
2024-01-19T00:15:43.295Z,12.20
2024-01-19T00:17:15.442Z,13.80
2024-01-19T00:18:47.408Z,13.00
2024-01-19T00:20:19.457Z,10.80
2024-01-19T00:21:51.915Z,10.50
2024-01-19T00:23:23.853Z,8.90
2024-01-19T00:24:57.225Z,9.40
2024-01-19T00:26:29.814Z,10.20
2024-01-19T00:28:01.808Z,11.60
2024-01-19T00:29:33.812Z,9.80
2024-01-19T00:31:06.713Z,9.30
2024-01-19T00:32:39.772Z,10.00
2024-01-19T00:34:11.758Z,8.50
2024-01-19T00:35:44.180Z,8.20
2024-01-19T00:37:16.278Z,9.50
2024-01-19T00:38:48.228Z,10.70
2024-01-19T00:40:20.224Z,12.20
2024-01-19T00:41:52.255Z,9.20
2024-01-19T00:43:24.301Z,12.20
2024-01-19T00:44:56.537Z,12.30
2024-01-19T00:46:30.164Z,12.80
2024-01-19T00:48:02.291Z,12.20
2024-01-19T00:49:35.791Z,9.60
2024-01-19T00:51:07.910Z,12.40
2024-01-19T00:52:39.881Z,12.40
2024-01-19T00:54:12.328Z,10.10
2024-01-19T00:55:44.256Z,14.10
2024-01-19T00:57:16.210Z,10.70
2024-01-19T00:58:48.733Z,14.80
2024-01-19T01:00:20.961Z,14.20
2024-01-19T01:01:52.958Z,12.50
2024-01-19T01:03:26.707Z,15.60
2024-01-19T01:04:59.570Z,16.70
2024-01-19T01:06:33.098Z,16.30
2024-01-19T01:08:07.033Z,18.20
2024-01-19T01:09:39.976Z,17.70
2024-01-19T01:11:11.917Z,17.80
2024-01-19T01:12:43.910Z,15.30
2024-01-19T01:14:16.876Z,19.40
2024-01-19T01:15:50.097Z,17.20
2024-01-19T01:17:22.113Z,19.00
2024-01-19T01:18:54.023Z,18.10
2024-01-19T01:20:26.307Z,17.10
2024-01-19T01:21:58.273Z,17.10
2024-01-19T01:23:30.267Z,15.60
2024-01-19T01:25:02.187Z,12.70
2024-01-19T01:26:34.320Z,14.20
2024-01-19T01:28:06.337Z,17.30
2024-01-19T01:29:38.277Z,15.00
2024-01-19T01:31:11.144Z,10.20
2024-01-19T01:32:43.286Z,17.10
2024-01-19T01:34:15.375Z,17.80
2024-01-19T01:35:47.414Z,17.70
2024-01-19T01:37:19.308Z,15.00
2024-01-19T01:38:51.344Z,15.30
2024-01-19T01:40:23.530Z,16.20
2024-01-19T01:41:55.577Z,15.60
2024-01-19T01:43:28.534Z,14.80
2024-01-19T01:45:01.931Z,14.30
2024-01-19T01:46:34.060Z,15.80
2024-01-19T01:48:06.275Z,14.30
2024-01-19T01:49:38.946Z,17.60
2024-01-19T01:51:13.160Z,14.90
2024-01-19T01:52:45.350Z,14.00
2024-01-19T01:54:17.798Z,16.00
2024-01-19T01:55:50.651Z,13.50
2024-01-19T01:57:26.564Z,15.80
2024-01-19T01:58:59.714Z,14.40
2024-01-19T02:00:34.030Z,13.40
2024-01-19T02:02:06.456Z,15.20
2024-01-19T02:03:40.709Z,11.10
2024-01-19T02:05:12.706Z,14.50
2024-01-19T02:06:44.729Z,12.30
2024-01-19T02:08:17.116Z,14.80
2024-01-19T02:09:49.370Z,15.60
2024-01-19T02:11:21.322Z,15.90
2024-01-19T02:12:54.405Z,15.20
2024-01-19T02:14:26.482Z,14.60
2024-01-19T02:16:01.343Z,15.90
2024-01-19T02:17:33.381Z,14.10
2024-01-19T02:19:05.562Z,15.30
2024-01-19T02:20:37.560Z,16.70
2024-01-19T02:22:10.672Z,13.60
2024-01-19T02:24:16.416Z,14.80
2024-01-19T02:25:49.598Z,14.60
2024-01-19T02:27:21.968Z,16.60
2024-01-19T02:28:56.364Z,12.50
2024-01-19T02:30:28.977Z,14.00
2024-01-19T02:32:01.036Z,13.60
2024-01-19T02:33:32.991Z,10.80
2024-01-19T02:35:07.034Z,12.10
2024-01-19T02:36:39.036Z,12.30
2024-01-19T02:38:11.033Z,12.20
2024-01-19T02:39:43.022Z,13.30
2024-01-19T02:41:15.166Z,10.70
2024-01-19T02:42:47.235Z,12.30
2024-01-19T02:44:19.131Z,12.30
2024-01-19T02:45:51.166Z,13.20
2024-01-19T02:47:23.025Z,12.60
2024-01-19T02:48:57.514Z,11.80
2024-01-19T02:50:29.865Z,11.20
2024-01-19T02:52:01.816Z,12.00
2024-01-19T02:53:33.827Z,10.40
2024-01-19T02:55:07.702Z,11.80
2024-01-19T02:56:39.762Z,10.10
2024-01-19T02:58:11.857Z,11.70
2024-01-19T02:59:43.858Z,13.60
2024-01-19T03:01:15.809Z,13.40
2024-01-19T03:02:47.833Z,10.80
2024-01-19T03:04:19.777Z,13.40
2024-01-19T03:05:51.867Z,12.00
2024-01-19T03:07:24.193Z,11.00
2024-01-19T03:08:57.126Z,10.80
2024-01-19T03:10:29.340Z,12.90
2024-01-19T03:12:01.335Z,13.00
2024-01-19T03:13:33.391Z,9.10
2024-01-19T03:15:06.268Z,13.10
2024-01-19T03:16:45.405Z,12.80
2024-01-19T03:18:17.637Z,12.70
2024-01-19T03:19:49.959Z,15.10
2024-01-19T03:21:23.090Z,15.00
2024-01-19T03:22:55.079Z,12.30
2024-01-19T03:24:29.209Z,15.30
2024-01-19T03:26:01.433Z,14.90
2024-01-19T03:27:33.612Z,11.70
2024-01-19T03:29:05.585Z,13.10
2024-01-19T03:30:38.745Z,13.20
2024-01-19T03:32:10.594Z,10.80
2024-01-19T03:33:42.980Z,13.60
2024-01-19T03:35:15.440Z,14.20
2024-01-19T03:36:48.129Z,15.00
2024-01-19T03:38:21.243Z,13.20
2024-01-19T03:39:53.120Z,15.10
2024-01-19T03:41:25.072Z,10.40
2024-01-19T03:42:57.033Z,14.90
2024-01-19T03:44:29.357Z,14.60
2024-01-19T03:46:02.430Z,11.40
2024-01-19T03:47:34.553Z,13.60
2024-01-19T03:49:06.654Z,14.70
2024-01-19T03:50:39.015Z,14.40
2024-01-19T03:52:12.257Z,14.40
2024-01-19T03:53:45.051Z,12.20
2024-01-19T03:55:18.988Z,13.20
2024-01-19T03:56:51.454Z,13.50
2024-01-19T03:58:23.462Z,15.80
2024-01-19T03:59:55.374Z,14.30
2024-01-19T04:01:27.342Z,13.20
2024-01-19T04:02:59.430Z,10.70
2024-01-19T04:04:31.503Z,13.00
2024-01-19T04:06:04.229Z,13.10
2024-01-19T04:07:37.542Z,12.40
2024-01-19T04:09:09.931Z,12.30
2024-01-19T04:11:16.441Z,15.00
2024-01-19T04:12:52.882Z,13.30
2024-01-19T04:14:24.876Z,14.10
2024-01-19T04:15:56.947Z,13.40
2024-01-19T04:17:29.000Z,14.50
2024-01-19T04:19:01.107Z,15.30
2024-01-19T04:20:33.392Z,14.70
2024-01-19T04:22:07.166Z,14.90
2024-01-19T04:23:39.513Z,13.20
2024-01-19T04:25:11.715Z,13.50
2024-01-19T04:26:44.313Z,15.00
2024-01-19T04:28:16.616Z,12.40
2024-01-19T04:29:49.672Z,13.40
2024-01-19T04:31:22.113Z,15.10
2024-01-19T04:32:54.128Z,12.30
2024-01-19T04:34:27.277Z,14.70
2024-01-19T04:35:59.606Z,14.10
2024-01-19T04:37:32.279Z,13.70
2024-01-19T04:39:05.341Z,12.30
2024-01-19T04:40:37.435Z,14.90
2024-01-19T04:42:09.362Z,12.20
2024-01-19T04:43:41.360Z,13.60
2024-01-19T04:45:13.344Z,12.40
2024-01-19T04:46:45.416Z,12.50
2024-01-19T04:48:17.748Z,13.80
2024-01-19T04:49:50.529Z,13.80
2024-01-19T04:51:22.400Z,13.90
2024-01-19T04:52:54.320Z,13.60
2024-01-19T04:54:27.237Z,12.10
2024-01-19T04:55:59.197Z,13.70
2024-01-19T04:57:31.146Z,13.90
2024-01-19T04:59:03.233Z,12.00
2024-01-19T05:00:35.608Z,14.10
2024-01-19T05:02:08.248Z,13.60
2024-01-19T05:03:42.542Z,12.40
2024-01-19T05:05:15.254Z,12.40
2024-01-19T05:06:47.501Z,13.10
2024-01-19T05:08:19.708Z,13.20
2024-01-19T05:09:52.689Z,11.90
2024-01-19T05:11:24.704Z,14.10
2024-01-19T05:12:56.849Z,14.20
2024-01-19T05:14:28.888Z,13.10
2024-01-19T05:16:00.969Z,13.20
2024-01-19T05:17:34.580Z,14.00
2024-01-19T05:19:08.017Z,11.50
2024-01-19T05:20:40.008Z,14.10
2024-01-19T05:22:12.171Z,12.80
2024-01-19T05:23:44.319Z,14.10
2024-01-19T05:25:19.833Z,12.90
2024-01-19T05:26:52.567Z,13.90
2024-01-19T05:28:25.251Z,12.90
2024-01-19T05:29:58.667Z,14.50
2024-01-19T05:31:30.741Z,14.30
2024-01-19T05:33:03.504Z,11.70
2024-01-19T05:34:35.758Z,13.70
2024-01-19T05:36:08.435Z,10.60
2024-01-19T05:37:40.671Z,11.10
2024-01-19T05:39:13.463Z,12.10
2024-01-19T05:40:45.538Z,14.40
2024-01-19T05:42:20.963Z,16.00
2024-01-19T05:43:53.083Z,11.90
2024-01-19T05:45:25.495Z,11.30
2024-01-19T05:46:57.368Z,15.20
2024-01-19T05:48:30.366Z,11.00
2024-01-19T05:50:10.729Z,11.80
2024-01-19T05:51:44.966Z,13.30
2024-01-19T05:53:16.922Z,11.20
2024-01-19T05:54:48.872Z,13.90
2024-01-19T05:56:22.397Z,14.00
2024-01-19T05:57:54.351Z,12.80
2024-01-19T05:59:32.062Z,14.50
2024-01-19T06:01:06.412Z,13.60
2024-01-19T06:02:38.780Z,10.70
2024-01-19T06:04:10.886Z,13.10
2024-01-19T06:05:42.836Z,15.20
2024-01-19T06:07:14.973Z,12.60
2024-01-19T06:08:47.133Z,12.50
2024-01-19T06:10:19.123Z,14.60
2024-01-19T06:11:51.840Z,14.10
2024-01-19T06:13:25.172Z,14.00
2024-01-19T06:14:57.428Z,12.40
2024-01-19T06:16:33.065Z,13.30
2024-01-19T06:18:05.412Z,13.10
2024-01-19T06:19:37.640Z,13.30
2024-01-19T06:21:20.405Z,11.60
2024-01-19T06:22:52.388Z,13.80
2024-01-19T06:24:26.612Z,12.00
2024-01-19T06:25:59.728Z,13.50
2024-01-19T06:27:31.845Z,13.50
2024-01-19T06:29:03.970Z,10.10
2024-01-19T06:30:38.308Z,13.30
2024-01-19T06:32:10.419Z,15.00
2024-01-19T06:33:42.519Z,13.40
2024-01-19T06:35:14.838Z,12.80
2024-01-19T06:36:48.093Z,13.80
2024-01-19T06:38:21.698Z,12.90
2024-01-19T06:39:55.934Z,14.90
2024-01-19T06:41:28.054Z,11.00
2024-01-19T06:43:01.385Z,10.90
2024-01-19T06:44:33.767Z,13.30
2024-01-19T06:46:08.308Z,13.80
2024-01-19T06:47:40.467Z,12.20
2024-01-19T06:49:14.012Z,13.00
2024-01-19T06:50:46.223Z,11.90
2024-01-19T06:52:18.336Z,13.60
2024-01-19T06:53:50.549Z,13.50
2024-01-19T06:55:22.557Z,13.60
2024-01-19T06:56:54.573Z,11.40
2024-01-19T06:58:26.648Z,13.50
2024-01-19T06:59:58.791Z,13.40
2024-01-19T07:01:31.368Z,14.40
2024-01-19T07:03:05.197Z,14.50
2024-01-19T07:04:37.741Z,12.90
2024-01-19T07:06:09.757Z,13.80
2024-01-19T07:07:41.814Z,14.80
2024-01-19T07:09:16.067Z,15.30
2024-01-19T07:10:48.076Z,14.20
2024-01-19T07:12:20.528Z,13.90
2024-01-19T07:13:52.646Z,13.30
2024-01-19T07:15:24.799Z,13.40
2024-01-19T07:16:56.824Z,13.30
2024-01-19T07:18:28.942Z,16.10
2024-01-19T07:20:04.724Z,13.70
2024-01-19T07:21:42.781Z,14.40
2024-01-19T07:23:14.746Z,16.20
2024-01-19T07:24:46.756Z,13.60
2024-01-19T07:26:21.230Z,14.70
2024-01-19T07:27:53.352Z,15.20
2024-01-19T07:29:25.951Z,11.90
2024-01-19T07:30:57.947Z,14.30
2024-01-19T07:32:47.258Z,12.30
2024-01-19T07:34:27.208Z,14.50
2024-01-19T07:35:59.387Z,14.20
2024-01-19T07:37:31.583Z,13.60
2024-01-19T07:39:05.112Z,12.60
2024-01-19T07:40:37.913Z,13.10
2024-01-19T07:42:10.257Z,13.70
2024-01-19T07:43:42.314Z,13.50
2024-01-19T07:45:14.739Z,16.60
2024-01-19T07:46:47.096Z,15.80
2024-01-19T07:48:19.442Z,16.50
2024-01-19T07:49:51.833Z,14.50
2024-01-19T07:51:24.110Z,14.30
2024-01-19T07:53:03.724Z,15.30
2024-01-19T07:54:39.057Z,15.00
2024-01-19T07:56:12.752Z,15.70
2024-01-19T07:57:52.391Z,13.10
2024-01-19T07:59:26.309Z,14.10
2024-01-19T08:01:00.473Z,14.80
2024-01-19T08:02:45.081Z,16.30
2024-01-19T08:04:17.050Z,17.30
2024-01-19T08:05:49.166Z,14.70
2024-01-19T08:07:21.771Z,17.30
2024-01-19T08:08:54.309Z,17.20
2024-01-19T08:10:26.679Z,17.30
2024-01-19T08:11:59.720Z,14.20
2024-01-19T08:13:32.111Z,16.70
2024-01-19T08:15:06.712Z,16.40
2024-01-19T08:16:38.575Z,16.50
2024-01-19T08:18:12.112Z,16.80
2024-01-19T08:19:44.376Z,17.30
2024-01-19T08:21:16.471Z,16.00
2024-01-19T08:22:48.936Z,12.30
2024-01-19T08:24:21.090Z,16.80
2024-01-19T08:25:53.002Z,14.80
2024-01-19T08:27:25.013Z,17.90
2024-01-19T08:28:57.100Z,16.10
2024-01-19T08:30:29.709Z,15.10
2024-01-19T08:32:01.839Z,15.30
2024-01-19T08:33:33.903Z,17.10
2024-01-19T08:35:09.833Z,13.90
2024-01-19T08:36:43.115Z,16.50
2024-01-19T08:38:15.096Z,16.90
2024-01-19T08:39:47.203Z,15.40
2024-01-19T08:41:19.478Z,15.00
2024-01-19T08:42:53.501Z,15.00
2024-01-19T08:44:25.562Z,14.90
2024-01-19T08:45:58.136Z,17.50
2024-01-19T08:47:30.495Z,16.80
2024-01-19T08:49:02.449Z,17.40
2024-01-19T08:50:34.757Z,14.10
2024-01-19T08:52:06.894Z,17.40
2024-01-19T08:53:38.843Z,16.60
2024-01-19T08:55:11.199Z,17.10
2024-01-19T08:56:49.611Z,15.70
2024-01-19T08:58:30.388Z,16.20
2024-01-19T09:00:06.120Z,16.70
2024-01-19T09:01:40.577Z,15.60
2024-01-19T09:03:12.637Z,16.00
2024-01-19T09:04:44.956Z,16.60
2024-01-19T09:06:17.834Z,13.20
2024-01-19T09:07:50.908Z,15.00
2024-01-19T09:09:23.701Z,17.90
2024-01-19T09:10:55.732Z,15.10
2024-01-19T09:12:31.198Z,16.80
2024-01-19T09:14:03.949Z,17.30
2024-01-19T09:15:35.850Z,17.10
2024-01-19T09:17:08.881Z,18.50
2024-01-19T09:18:43.128Z,18.00
2024-01-19T09:20:15.583Z,18.20
2024-01-19T09:21:49.015Z,17.10
2024-01-19T09:23:22.136Z,17.40
2024-01-19T09:24:54.083Z,15.90
2024-01-19T09:26:26.459Z,17.40
2024-01-19T09:27:58.645Z,16.80
2024-01-19T09:29:31.897Z,17.50
2024-01-19T09:31:04.074Z,16.60
2024-01-19T09:32:36.136Z,16.50
2024-01-19T09:34:08.337Z,14.60
2024-01-19T09:35:40.497Z,13.90
2024-01-19T09:37:13.242Z,14.60
2024-01-19T09:38:45.621Z,14.80
2024-01-19T09:40:20.260Z,16.90
2024-01-19T09:42:08.297Z,15.60
2024-01-19T09:43:46.395Z,14.90
2024-01-19T09:45:20.617Z,13.90
2024-01-19T09:46:53.669Z,17.60
2024-01-19T09:48:33.854Z,16.70
2024-01-19T09:50:07.509Z,14.80
2024-01-19T09:52:29.904Z,16.40
2024-01-19T09:54:11.294Z,12.80
2024-01-19T09:55:43.661Z,14.10
2024-01-19T09:57:15.654Z,13.70
2024-01-19T09:58:53.043Z,17.60
2024-01-19T10:00:28.526Z,15.80
2024-01-19T10:02:02.185Z,15.70
2024-01-19T10:03:35.831Z,16.80
2024-01-19T10:05:14.631Z,15.40
2024-01-19T10:06:48.520Z,17.00
2024-01-19T10:08:21.189Z,16.50
2024-01-19T10:09:55.149Z,16.10
2024-01-19T10:11:32.121Z,16.00
2024-01-19T10:13:04.321Z,15.10
2024-01-19T10:14:36.279Z,18.60
2024-01-19T10:16:09.251Z,16.20
2024-01-19T10:17:46.732Z,12.60
2024-01-19T10:19:23.323Z,17.50
2024-01-19T10:20:55.588Z,15.30
2024-01-19T10:22:30.219Z,16.30
2024-01-19T10:24:16.484Z,16.90
2024-01-19T10:25:51.083Z,13.10
2024-01-19T10:27:39.988Z,15.80
2024-01-19T10:29:15.615Z,15.40
2024-01-19T10:30:47.542Z,16.30
2024-01-19T10:32:23.348Z,14.40
2024-01-19T10:34:00.776Z,16.00
2024-01-19T10:35:41.607Z,16.00
2024-01-19T10:37:22.678Z,14.80
2024-01-19T10:38:54.752Z,15.10
2024-01-19T10:40:31.769Z,15.50
2024-01-19T10:42:09.991Z,14.90
2024-01-19T10:43:42.172Z,10.80
2024-01-19T10:45:20.260Z,14.20
2024-01-19T10:46:52.657Z,14.30
2024-01-19T10:48:28.148Z,13.60
2024-01-19T10:50:09.542Z,13.90
2024-01-19T10:51:43.734Z,14.20
2024-01-19T10:53:17.487Z,13.80
2024-01-19T10:54:51.929Z,11.10
2024-01-19T10:56:26.115Z,13.60
2024-01-19T10:58:07.552Z,15.10
2024-01-19T10:59:40.861Z,15.40
2024-01-19T11:01:19.218Z,13.80
2024-01-19T11:02:58.234Z,9.10
2024-01-19T11:04:30.792Z,12.80
2024-01-19T11:06:04.850Z,14.20
2024-01-19T11:07:38.169Z,14.20
2024-01-19T11:09:10.122Z,14.20
2024-01-19T11:10:49.633Z,13.50
2024-01-19T11:12:22.723Z,12.60
2024-01-19T11:14:02.113Z,13.00
2024-01-19T11:15:42.442Z,14.00
2024-01-19T11:17:14.976Z,11.80
2024-01-19T11:18:49.431Z,11.80
2024-01-19T11:20:25.920Z,15.10
2024-01-19T11:22:00.489Z,14.80
2024-01-19T11:23:36.046Z,15.00
2024-01-19T11:25:17.182Z,14.20
2024-01-19T11:27:24.476Z,15.60
2024-01-19T11:29:03.278Z,16.20
2024-01-19T11:31:08.368Z,12.50
2024-01-19T11:32:40.592Z,14.10
2024-01-19T11:34:52.177Z,13.10
2024-01-19T11:36:45.410Z,12.80
2024-01-19T11:38:46.242Z,14.20
2024-01-19T11:40:24.499Z,11.40
2024-01-19T11:41:56.838Z,11.50
2024-01-19T11:43:44.988Z,13.90
2024-01-19T11:45:43.956Z,11.10
2024-01-19T11:47:37.717Z,12.30
2024-01-19T11:49:39.066Z,14.80
2024-01-19T11:51:35.870Z,14.50
2024-01-19T11:53:09.726Z,12.40
2024-01-19T11:54:43.635Z,14.30
2024-01-19T11:56:23.382Z,15.50
2024-01-19T11:57:57.087Z,14.50
2024-01-19T11:59:29.944Z,11.70
2024-01-19T12:01:05.212Z,12.60
2024-01-19T12:02:37.439Z,12.90
2024-01-19T12:04:16.194Z,14.10
2024-01-19T12:05:55.899Z,13.40
2024-01-19T12:07:28.073Z,15.60
2024-01-19T12:09:08.376Z,13.50
2024-01-19T12:10:40.596Z,13.90
2024-01-19T12:12:13.014Z,12.10
2024-01-19T12:13:55.182Z,15.10
2024-01-19T12:15:31.653Z,14.30
2024-01-19T12:17:04.275Z,13.30
2024-01-19T12:18:40.495Z,13.90
2024-01-19T12:20:19.799Z,14.60
2024-01-19T12:21:52.040Z,11.10
2024-01-19T12:23:30.515Z,14.80
2024-01-19T12:25:27.492Z,12.30
2024-01-19T12:26:59.550Z,13.70
2024-01-19T12:28:34.612Z,13.50
2024-01-19T12:30:20.652Z,12.60
2024-01-19T12:31:52.667Z,12.90
2024-01-19T12:33:36.397Z,12.90
2024-01-19T12:35:09.289Z,12.00
2024-01-19T12:36:41.616Z,11.90
2024-01-19T12:38:16.502Z,10.70
2024-01-19T12:39:51.078Z,10.00
2024-01-19T12:41:23.190Z,10.50
2024-01-19T12:43:04.949Z,11.00
2024-01-19T12:44:37.020Z,11.10
2024-01-19T12:46:10.780Z,8.50
2024-01-19T12:47:47.925Z,11.30
2024-01-19T12:49:19.942Z,10.40
2024-01-19T12:50:51.963Z,11.10
2024-01-19T12:52:23.905Z,10.20
2024-01-19T12:53:56.944Z,10.20
2024-01-19T12:55:34.831Z,7.50
2024-01-19T12:57:18.030Z,10.70
2024-01-19T12:58:49.961Z,10.00
2024-01-19T13:00:28.979Z,7.40
2024-01-19T13:02:01.113Z,10.30
2024-01-19T13:03:33.135Z,10.30
2024-01-19T13:05:07.869Z,11.50
2024-01-19T13:06:46.897Z,10.10
2024-01-19T13:08:21.881Z,9.30
2024-01-19T13:10:07.147Z,10.30
2024-01-19T13:11:39.121Z,10.90
2024-01-19T13:13:20.445Z,9.90
2024-01-19T13:14:52.401Z,10.80
2024-01-19T13:16:24.362Z,11.00
2024-01-19T13:18:19.304Z,9.30
2024-01-19T13:19:52.356Z,9.30
2024-01-19T13:21:26.133Z,10.50
2024-01-19T13:22:58.048Z,9.60
2024-01-19T13:24:30.151Z,10.00
2024-01-19T13:26:03.181Z,10.30
2024-01-19T13:27:36.742Z,10.40
2024-01-19T13:29:08.953Z,11.60
2024-01-19T13:30:40.947Z,10.70
2024-01-19T13:32:12.980Z,10.50
2024-01-19T13:33:47.646Z,10.70
2024-01-19T13:35:19.672Z,10.90
2024-01-19T13:36:51.570Z,10.00
2024-01-19T13:38:26.363Z,8.50
2024-01-19T13:40:00.504Z,11.40
2024-01-19T13:41:32.522Z,9.90
2024-01-19T13:43:06.384Z,11.20
2024-01-19T13:44:38.484Z,10.30
2024-01-19T13:46:10.441Z,10.20
2024-01-19T13:47:42.297Z,10.10
2024-01-19T13:49:14.163Z,10.40
2024-01-19T13:50:46.340Z,11.40
2024-01-19T13:52:18.369Z,10.10
2024-01-19T13:53:50.809Z,9.70
2024-01-19T13:55:22.830Z,9.20
2024-01-19T13:56:54.988Z,10.80
2024-01-19T13:58:26.824Z,10.70
2024-01-19T14:00:00.367Z,9.20
2024-01-19T14:01:32.489Z,10.70
2024-01-19T14:03:06.952Z,9.60
2024-01-19T14:04:40.348Z,10.40
2024-01-19T14:06:15.191Z,9.70
2024-01-19T14:07:47.316Z,9.40
2024-01-19T14:09:19.489Z,9.00
2024-01-19T14:10:51.612Z,8.80
2024-01-19T14:12:24.070Z,10.80
2024-01-19T14:13:56.188Z,11.00
2024-01-19T14:15:31.543Z,10.40
2024-01-19T14:17:05.901Z,9.80
2024-01-19T14:18:39.388Z,9.90
2024-01-19T14:20:12.497Z,10.00
2024-01-19T14:21:44.546Z,11.00
2024-01-19T14:23:16.511Z,10.90
2024-01-19T14:24:48.556Z,10.10
2024-01-19T14:26:24.845Z,10.30
2024-01-19T14:27:56.902Z,10.10
2024-01-19T14:29:32.126Z,11.10
2024-01-19T14:31:05.707Z,10.70
2024-01-19T14:32:38.891Z,7.80
2024-01-19T14:34:11.749Z,9.60
2024-01-19T14:35:45.854Z,7.20
2024-01-19T14:37:17.805Z,10.20
2024-01-19T14:38:49.757Z,11.20
2024-01-19T14:40:21.701Z,10.10
2024-01-19T14:41:54.459Z,10.40
2024-01-19T14:43:26.344Z,10.30
2024-01-19T14:44:58.435Z,9.50
2024-01-19T14:46:33.016Z,11.20
2024-01-19T14:48:05.763Z,9.00
2024-01-19T14:49:39.366Z,12.30
2024-01-19T14:51:12.972Z,11.40
2024-01-19T14:52:46.620Z,10.60
2024-01-19T14:54:20.278Z,10.60
2024-01-19T14:55:52.545Z,11.00
2024-01-19T14:57:25.047Z,11.40
2024-01-19T14:58:57.738Z,11.00
2024-01-19T15:00:34.196Z,11.80
2024-01-19T15:02:07.087Z,11.50
2024-01-19T15:03:39.864Z,11.70
2024-01-19T15:05:11.970Z,11.00
2024-01-19T15:06:46.992Z,12.20
2024-01-19T15:08:19.745Z,11.40
2024-01-19T15:09:51.721Z,9.70
2024-01-19T15:11:23.689Z,11.30
2024-01-19T15:12:55.656Z,11.00
2024-01-19T15:14:28.197Z,11.60
2024-01-19T15:16:00.043Z,11.90
2024-01-19T15:17:32.019Z,10.20
2024-01-19T15:19:05.887Z,11.90
2024-01-19T15:20:38.164Z,11.30
2024-01-19T15:22:10.056Z,12.40
2024-01-19T15:23:43.763Z,11.60
2024-01-19T15:25:16.385Z,12.10
2024-01-19T15:26:49.147Z,13.30
2024-01-19T15:28:21.142Z,12.10
2024-01-19T15:29:52.995Z,11.70
2024-01-19T15:31:25.792Z,11.50
2024-01-19T15:32:57.844Z,11.50
2024-01-19T15:34:29.937Z,11.20
2024-01-19T15:36:02.126Z,12.70
2024-01-19T15:37:35.195Z,11.40
2024-01-19T15:39:08.562Z,11.40
2024-01-19T15:40:40.773Z,12.10
2024-01-19T15:42:12.848Z,9.90
2024-01-19T15:43:44.714Z,11.60
2024-01-19T15:45:17.280Z,11.00
2024-01-19T15:46:49.254Z,13.00
2024-01-19T15:48:23.585Z,11.80
2024-01-19T15:49:55.689Z,10.80
2024-01-19T15:51:29.042Z,10.20
2024-01-19T15:53:01.009Z,10.60
2024-01-19T15:54:32.976Z,12.20
2024-01-19T15:56:06.609Z,12.70
2024-01-19T15:57:38.716Z,11.30
2024-01-19T15:59:10.700Z,12.60
2024-01-19T16:00:42.680Z,12.30
2024-01-19T16:02:14.893Z,14.10
2024-01-19T16:03:48.702Z,13.00
2024-01-19T16:05:21.365Z,11.10
2024-01-19T16:06:53.409Z,13.50
2024-01-19T16:08:25.395Z,13.50
2024-01-19T16:09:57.306Z,13.20
2024-01-19T16:11:31.174Z,13.60
2024-01-19T16:13:04.345Z,12.80
2024-01-19T16:14:37.683Z,13.10
2024-01-19T16:16:11.649Z,14.20
2024-01-19T16:17:43.761Z,7.90
2024-01-19T16:19:16.002Z,12.80
2024-01-19T16:20:48.826Z,11.80
2024-01-19T16:22:23.539Z,12.10
2024-01-19T16:23:56.261Z,13.60
2024-01-19T16:25:28.340Z,9.10
2024-01-19T16:27:02.046Z,12.60
2024-01-19T16:28:34.004Z,13.10
2024-01-19T16:30:07.249Z,13.00
2024-01-19T16:31:39.367Z,11.80
2024-01-19T16:33:14.525Z,12.00
2024-01-19T16:34:46.554Z,9.90
2024-01-19T16:36:18.788Z,12.10
2024-01-19T16:37:50.922Z,12.70
2024-01-19T16:39:24.565Z,10.80
2024-01-19T16:40:57.732Z,14.00
2024-01-19T16:42:29.844Z,14.70
2024-01-19T16:44:04.919Z,12.70
2024-01-19T16:45:37.104Z,13.70
2024-01-19T16:47:09.001Z,12.20
2024-01-19T16:48:43.186Z,13.20
2024-01-19T16:50:17.544Z,13.00
2024-01-19T16:51:49.568Z,12.60
2024-01-19T16:53:21.567Z,13.30
2024-01-19T16:54:53.513Z,11.90
2024-01-19T16:56:26.640Z,13.10
2024-01-19T16:57:58.573Z,12.20
2024-01-19T16:59:34.360Z,11.20
2024-01-19T17:01:06.473Z,10.10
2024-01-19T17:02:38.835Z,12.00
2024-01-19T17:04:10.835Z,9.80
2024-01-19T17:05:42.904Z,12.60
2024-01-19T17:07:14.876Z,10.10
2024-01-19T17:08:46.701Z,12.10
2024-01-19T17:10:20.055Z,7.50
2024-01-19T17:11:52.047Z,13.80
2024-01-19T17:13:24.049Z,11.60
2024-01-19T17:14:58.156Z,11.20
2024-01-19T17:16:30.140Z,11.50
2024-01-19T17:18:04.160Z,12.90
2024-01-19T17:19:36.597Z,13.30
2024-01-19T17:21:08.600Z,13.00
2024-01-19T17:22:41.871Z,8.60
2024-01-19T17:24:14.489Z,12.80
2024-01-19T17:25:47.376Z,10.70
2024-01-19T17:27:19.718Z,11.60
2024-01-19T17:28:53.288Z,13.30
2024-01-19T17:30:28.544Z,12.40
2024-01-19T17:32:00.521Z,9.80
2024-01-19T17:33:32.479Z,13.10
2024-01-19T17:35:05.674Z,12.40
2024-01-19T17:36:38.430Z,14.20
2024-01-19T17:38:13.928Z,12.70
2024-01-19T17:39:46.109Z,12.30
2024-01-19T17:41:18.815Z,14.00
2024-01-19T17:42:52.049Z,14.10
2024-01-19T17:44:24.335Z,13.70
2024-01-19T17:45:56.335Z,14.10
2024-01-19T17:47:31.886Z,14.30
2024-01-19T17:49:04.541Z,14.00
2024-01-19T17:50:36.704Z,14.00
2024-01-19T17:52:10.215Z,13.60
2024-01-19T17:53:42.721Z,11.80
2024-01-19T17:55:14.967Z,12.70
2024-01-19T17:56:47.035Z,12.60
2024-01-19T17:58:22.594Z,13.50
2024-01-19T17:59:56.693Z,13.00
2024-01-19T18:01:30.442Z,13.70
2024-01-19T18:03:06.663Z,11.20
2024-01-19T18:04:40.513Z,10.60
2024-01-19T18:06:15.628Z,12.40
2024-01-19T18:07:47.968Z,12.60
2024-01-19T18:09:21.151Z,14.20
2024-01-19T18:10:53.953Z,11.90
2024-01-19T18:12:26.960Z,13.00
2024-01-19T18:14:00.454Z,11.20
2024-01-19T18:15:33.514Z,12.50
2024-01-19T18:17:06.273Z,15.60
2024-01-19T18:18:38.417Z,12.30
2024-01-19T18:20:11.685Z,14.00
2024-01-19T18:21:44.212Z,15.30
2024-01-19T18:23:16.872Z,15.10
2024-01-19T18:24:49.228Z,15.20
2024-01-19T18:26:27.461Z,16.00
2024-01-19T18:28:00.331Z,14.40
2024-01-19T18:29:32.296Z,12.90
2024-01-19T18:31:04.773Z,14.70
2024-01-19T18:32:36.909Z,12.50
2024-01-19T18:34:09.179Z,13.10
2024-01-19T18:35:44.346Z,14.80
2024-01-19T18:37:17.958Z,13.70
2024-01-19T18:38:49.938Z,15.80
2024-01-19T18:40:22.811Z,13.30
2024-01-19T18:41:54.812Z,11.90
2024-01-19T18:43:27.024Z,13.50
2024-01-19T18:44:59.487Z,13.10
2024-01-19T18:46:31.619Z,13.10
2024-01-19T18:48:05.572Z,13.40
2024-01-19T18:49:38.113Z,15.50
2024-01-19T18:51:10.954Z,14.50
2024-01-19T18:52:45.089Z,12.20
2024-01-19T18:54:17.817Z,14.80
2024-01-19T18:55:54.505Z,15.30
2024-01-19T18:57:27.692Z,14.10
2024-01-19T18:58:59.815Z,13.60
2024-01-19T19:00:32.059Z,12.00
2024-01-19T19:02:05.450Z,13.80
2024-01-19T19:03:37.449Z,15.30
2024-01-19T19:05:09.917Z,14.70
2024-01-19T19:06:42.249Z,15.30
2024-01-19T19:08:14.702Z,13.90
2024-01-19T19:09:46.843Z,12.20
2024-01-19T19:11:20.589Z,14.90
2024-01-19T19:12:54.414Z,14.50
2024-01-19T19:14:31.056Z,14.80
2024-01-19T19:16:03.831Z,15.10
2024-01-19T19:17:36.754Z,12.90
2024-01-19T19:19:09.352Z,14.00
2024-01-19T19:20:41.297Z,13.30
2024-01-19T19:22:15.037Z,15.50
2024-01-19T19:23:48.352Z,14.50
2024-01-19T19:25:20.295Z,13.60
2024-01-19T19:26:52.197Z,13.40
2024-01-19T19:28:25.416Z,14.30
2024-01-19T19:29:57.431Z,11.90
2024-01-19T19:31:29.439Z,13.60
2024-01-19T19:33:02.529Z,13.40
2024-01-19T19:34:37.075Z,14.20
2024-01-19T19:36:11.659Z,8.50
2024-01-19T19:37:43.745Z,12.50
2024-01-19T19:39:15.677Z,13.40
2024-01-19T19:40:47.733Z,13.30
2024-01-19T19:42:21.369Z,12.80
2024-01-19T19:43:53.559Z,13.10
2024-01-19T19:45:25.507Z,11.90
2024-01-19T19:46:57.477Z,12.60
2024-01-19T19:48:29.431Z,14.30
2024-01-19T19:50:03.128Z,11.90
2024-01-19T19:51:37.411Z,14.20
2024-01-19T19:53:14.619Z,14.10
2024-01-19T19:54:47.249Z,13.10
2024-01-19T19:56:19.423Z,11.80
2024-01-19T19:57:52.323Z,7.80
2024-01-19T19:59:25.023Z,13.30
2024-01-19T20:01:02.226Z,13.30
2024-01-19T20:02:34.401Z,13.60
2024-01-19T20:04:08.719Z,13.40
2024-01-19T20:05:40.651Z,13.70
2024-01-19T20:07:12.549Z,14.00
2024-01-19T20:08:44.739Z,12.40
2024-01-19T20:10:16.829Z,13.60
2024-01-19T20:11:50.384Z,12.50